Blue Diamond, NV

7:58 AM PDT on October 24, 2014 (GMT -0700)
North Las Vegas | Change Station
CLOSE
Current Station
Airport
Location: North Las Vegas,
Elevation: 2205 ft
Nearby Weather Stations

Elev 2205 ft 36.21 °N, 115.19 °W | Updated 1 hour ago

Clear
Clear
62 °F
Feels Like 62 °F
N
4
Wind Variable Wind from West

Today
High -- | Low -- °F
--% Chance of Precip.
Yesterday
High -- | Low -- °F
Precip. -- in
6:56 AM 5:54 PM
New Moon, 1% visible
Pressure 30.08 in
Visibility 10.0 miles
Clouds Clear
Dew Point 37 °F
Humidity 39%
Rainfall 0.00 in
Snow Depth Not available.
UV 0 out of 12
Pollen 4.40 out of 12
Ozone Good
PM2.5 Good
Flu Activity No Activity
METAR KVGT 241353Z 26003KT 10SM CLR 17/03 A3007 RMK AO2 SLP184 T01670028 $

More Conditions Fewer Conditions

Pressure 30.08 in
Visibility 10.0 miles
Clouds Clear
Dew Point 37 °F
Humidity 39%
Rainfall 0.00 in
Snow Depth Not available.
UV 0 out of 12
Pollen 4.40 out of 12
Ozone Good
PM2.5 Good
Flu Activity No Activity
METAR KVGT 241353Z 26003KT 10SM CLR 17/03 A3007 RMK AO2 SLP184 T01670028 $

More Conditions Fewer Conditions

10-Day Weather Forecast

Almanac

Astronomy

Oct. 24, 2014 Rise Set
Actual Time 6:56 AM PDT 5:54 PM PDT
Civil Twilight 6:30 AM PDT 6:20 PM PDT
Nautical Twilight 6:00 AM PDT 6:50 PM PDT
Astronomical Twilight 5:30 AM PDT 7:20 PM PDT
Moon 7:39 AM PDT 6:38 PM PDT
Length of Visible Light 11h 49m
Length of Day
10h 57m
Tomorrow will be 2m 7s shorter.
New Moon, 1% of the Moon is Illuminated
Today
New Moon
Oct 30
First Quarter
Nov 6
Full
Nov 14
Last Quarter
Nov 22
New

Today's Extremes

State Highs State Lows

Community

WunderPhotos

Upload Photos

1,764,581 photos uploaded!

Nearby

Air Quality

  Air Quality AQ Index Pollutant
Yesterday Good
PM10
Yesterday Good
OZONE
Current Good
OZONE
Current Good
PM2.5
Friday Good
PM10
Friday Good
OZONE
Saturday Good
PM10
Saturday Good
OZONE
Sunday Good
PM10
Sunday Good
OZONE
Monday Good
PM10
Monday Good
OZONE
Tuesday Good
PM10
Tuesday Good
OZONE

Snow Depth

Station Depth Elevation
Ward Mountain 0 in 9200 ft
Diamond Peak 1 in 8000 ft
Big Creek Summit 2 in 8700 ft
Corral Canyon 0 in 8500 ft
Green Mountain 0 in 8000 ft

Earthquake Activity

City Distance Mag. Time & Date
No recent earthquake activity has been reported nearby.
Minimum magnitude displayed is 2.5.

Coastal Water Temperatures

Place Temperature
No Stations Reporting

Nearby Weather Stations